Time;durP1;ratioP1;P1;durP2;ratioP2;P2;SDS_P1;SDS_P2;PMS_P1;PMS_P2;Temp;Humidity;BMP_temperature;BMP_pressure;BME280_temperature;BME280_humidity;BME280_pressure;Samples;Min_cycle;Max_cycle;Signal;HPM_P1;HPM_P2
2022/06/18 00:01:37;;;;;;;2.00;1.67;;;;;;;17.77;78.13;101236.72;5058868;28;20259;-73
2022/06/18 00:04:09;;;;;;;2.20;1.90;;;;;;;17.75;76.63;101235.09;5056058;28;20206;-73
2022/06/18 00:06:43;;;;;;;2.63;1.80;;;;;;;17.73;76.18;101234.28;5056306;28;20437;-73
2022/06/18 00:09:11;;;;;;;1.90;1.80;;;;;;;17.71;76.41;101229.13;5056040;28;20317;-73
2022/06/18 00:14:22;;;;;;;1.70;1.60;;;;;;;17.73;76.94;101221.13;5054405;28;20194;-74
2022/06/18 00:16:49;;;;;;;1.57;1.47;;;;;;;17.73;77.76;101221.13;5054512;28;20206;-73
2022/06/18 00:19:15;;;;;;;2.23;1.60;;;;;;;17.72;76.46;101222.06;5056871;28;20670;-73
2022/06/18 00:21:43;;;;;;;1.93;1.70;;;;;;;17.71;75.80;101230.88;5059936;28;20226;-74
2022/06/18 00:24:15;;;;;;;2.00;1.53;;;;;;;17.71;76.17;101220.34;5056429;28;20212;-74
2022/06/18 00:26:41;;;;;;;3.67;1.77;;;;;;;17.66;75.12;101224.97;5056017;28;20203;-73
2022/06/18 00:29:12;;;;;;;3.03;1.87;;;;;;;17.65;76.58;101228.53;5053511;28;20611;-73
2022/06/18 00:31:39;;;;;;;4.40;1.87;;;;;;;17.61;77.37;101214.66;5056301;28;20226;-74
2022/06/18 00:34:06;;;;;;;1.80;1.70;;;;;;;17.59;78.17;101219.16;5041213;28;20207;-74
2022/06/18 00:36:34;;;;;;;2.07;1.87;;;;;;;17.55;78.58;101207.88;5053216;28;20703;-73
2022/06/18 00:39:02;;;;;;;1.60;1.50;;;;;;;17.49;77.14;101207.31;5040402;28;20199;-74
2022/06/18 00:41:29;;;;;;;1.53;1.43;;;;;;;17.48;78.19;101202.94;5039621;28;20491;-72
2022/06/18 00:44:00;;;;;;;1.67;1.53;;;;;;;17.40;76.95;101216.50;5055301;28;20202;-74
2022/06/18 00:46:30;;;;;;;1.70;1.60;;;;;;;17.36;78.03;101210.50;5058533;28;20203;-73
2022/06/18 00:49:02;;;;;;;1.37;1.27;;;;;;;17.30;78.92;101216.03;5057347;28;20242;-74
2022/06/18 00:51:32;;;;;;;1.40;1.30;;;;;;;17.25;79.64;101214.53;5059394;28;20226;-72
2022/06/18 00:54:08;;;;;;;1.40;1.30;;;;;;;17.19;78.25;101210.41;5066608;28;20201;-73
2022/06/18 00:56:41;;;;;;;2.00;1.50;;;;;;;17.17;79.29;101206.97;5064743;28;20217;-73
2022/06/18 00:59:16;;;;;;;1.70;1.60;;;;;;;17.09;79.43;101207.31;5052894;28;20198;-73
2022/06/18 01:01:46;;;;;;;1.70;1.57;;;;;;;17.00;79.97;101211.19;5070050;28;20226;-74
2022/06/18 01:04:30;;;;;;;3.90;1.80;;;;;;;16.94;81.68;101194.78;5066015;28;20211;-74
2022/06/18 01:07:02;;;;;;;1.70;1.60;;;;;;;16.88;82.26;101195.09;5065323;28;20632;-73
2022/06/18 01:09:31;;;;;;;1.97;1.63;;;;;;;16.82;82.38;101191.75;5050655;28;20225;-73
2022/06/18 01:11:58;;;;;;;1.53;1.43;;;;;;;16.79;83.20;101191.88;5049150;28;20299;-73
2022/06/18 01:14:27;;;;;;;1.70;1.60;;;;;;;16.72;82.46;101187.81;5050789;28;20213;-74
2022/06/18 01:16:55;;;;;;;2.33;1.70;;;;;;;16.68;83.05;101198.56;5071015;28;20194;-73
2022/06/18 01:19:29;;;;;;;2.87;1.60;;;;;;;16.65;83.45;101199.53;5065938;28;20199;-72
2022/06/18 01:22:09;;;;;;;1.50;1.40;;;;;;;16.61;84.01;101192.69;5068218;28;20222;-73
2022/06/18 01:24:41;;;;;;;1.97;1.77;;;;;;;16.59;83.76;101197.16;5057688;28;20224;-72
2022/06/18 01:27:11;;;;;;;5.50;1.43;;;;;;;16.60;85.10;101196.22;5068133;28;20187;-73
2022/06/18 01:29:38;;;;;;;2.63;1.60;;;;;;;16.55;84.25;101190.28;5071807;28;20265;-74
2022/06/18 01:32:08;;;;;;;2.23;1.47;;;;;;;16.50;84.31;101190.50;5045243;28;20218;-72
2022/06/18 01:34:36;;;;;;;2.70;1.60;;;;;;;16.46;84.35;101187.16;5052065;28;20596;-74
2022/06/18 01:37:05;;;;;;;2.23;1.27;;;;;;;16.43;84.27;101186.41;5052298;28;20609;-73
2022/06/18 01:39:36;;;;;;;1.53;1.30;;;;;;;16.39;82.71;101180.44;5046618;28;20206;-74
2022/06/18 01:42:10;;;;;;;1.50;1.40;;;;;;;16.38;82.75;101181.34;5042616;28;20196;-73
2022/06/18 01:44:42;;;;;;;1.40;1.30;;;;;;;16.34;82.99;101181.50;5044312;28;20210;-73
2022/06/18 01:47:16;;;;;;;4.97;1.40;;;;;;;16.38;85.86;101178.72;5042872;28;20649;-73
2022/06/18 01:49:49;;;;;;;1.87;1.20;;;;;;;16.38;84.31;101176.06;5037746;28;20651;-73
2022/06/18 01:52:24;;;;;;;1.47;1.23;;;;;;;16.39;85.28;101167.28;5039279;28;20212;-73
2022/06/18 01:55:02;;;;;;;4.50;1.47;;;;;;;16.39;86.83;101156.75;5056475;28;20202;-73
2022/06/18 01:57:35;;;;;;;3.30;1.73;;;;;;;16.35;85.78;101160.41;5036441;28;20576;-73
2022/06/18 02:00:08;;;;;;;2.57;1.40;;;;;;;16.35;85.58;101160.41;5060738;28;20330;-74
2022/06/18 02:02:43;;;;;;;1.43;1.30;;;;;;;16.34;86.11;101169.25;5059708;28;20195;-73
2022/06/18 02:05:11;;;;;;;1.30;1.13;;;;;;;16.31;84.23;101158.84;5041301;28;20268;-73
2022/06/18 02:07:38;;;;;;;2.83;1.30;;;;;;;16.35;84.70;101162.19;5038575;28;20221;-74
2022/06/18 02:10:09;;;;;;;3.90;1.80;;;;;;;16.34;84.78;101150.81;5045077;28;20239;-72
2022/06/18 02:12:40;;;;;;;2.17;1.60;;;;;;;16.33;84.89;101145.63;5058232;28;20202;-73
2022/06/18 02:15:10;;;;;;;2.47;1.47;;;;;;;16.33;85.88;101143.84;5057489;28;20202;-72
2022/06/18 02:17:38;;;;;;;1.30;1.20;;;;;;;16.34;86.09;101147.31;5042828;28;20763;-74
2022/06/18 02:20:09;;;;;;;1.70;1.60;;;;;;;16.34;86.16;101134.16;5038860;28;20760;-72
2022/06/18 02:22:41;;;;;;;2.73;1.27;;;;;;;16.34;86.10;101139.41;5055364;28;20317;-74
2022/06/18 02:25:08;;;;;;;4.23;1.57;;;;;;;16.35;86.47;101126.19;5059540;28;20201;-73
2022/06/18 02:27:40;;;;;;;2.40;1.10;;;;;;;16.37;86.03;101134.88;5061667;28;20675;-74
2022/06/18 02:30:15;;;;;;;5.10;1.20;;;;;;;16.39;84.73;101125.16;5039757;28;20419;-73
2022/06/18 02:32:50;;;;;;;1.80;1.37;;;;;;;16.42;86.42;101132.91;5040767;28;20206;-74
2022/06/18 02:35:17;;;;;;;3.00;1.60;;;;;;;16.42;87.00;101118.91;5041459;28;20235;-73
2022/06/18 02:37:44;;;;;;;4.10;1.70;;;;;;;16.42;87.36;101130.28;5053709;28;20233;-73
2022/06/18 02:40:17;;;;;;;1.40;1.30;;;;;;;16.43;87.16;101128.53;5056708;28;20464;-74
2022/06/18 02:42:46;;;;;;;1.83;1.50;;;;;;;16.42;87.33;101125.00;5054624;28;20195;-73
2022/06/18 02:45:12;;;;;;;1.67;1.27;;;;;;;16.38;86.60;101122.59;5043414;28;20206;-73
2022/06/18 02:47:41;;;;;;;1.53;1.40;;;;;;;16.33;86.49;101122.78;5056010;28;20211;-73
2022/06/18 02:50:14;;;;;;;3.93;1.40;;;;;;;16.29;87.65;101123.84;5040713;28;20240;-74
2022/06/18 02:52:44;;;;;;;1.30;1.20;;;;;;;16.25;88.55;101119.59;5057768;28;20220;-74
2022/06/18 02:55:19;;;;;;;2.30;1.30;;;;;;;16.20;89.63;101129.47;5048055;28;20210;-74
2022/06/18 02:57:49;;;;;;;3.07;1.60;;;;;;;16.11;89.62;101129.84;5039314;28;20605;-74
2022/06/18 03:00:16;;;;;;;1.57;1.30;;;;;;;16.07;90.24;101118.59;5053606;28;20221;-73
2022/06/18 03:02:43;;;;;;;2.83;1.17;;;;;;;15.99;89.64;101115.44;5056374;28;20640;-75
2022/06/18 03:05:18;;;;;;;2.47;1.33;;;;;;;15.97;90.39;101107.63;5054590;28;20206;-74
2022/06/18 03:07:45;;;;;;;1.60;1.50;;;;;;;15.96;91.31;101113.78;5056429;28;20267;-73
2022/06/18 03:12:46;;;;;;;4.80;1.40;;;;;;;15.84;90.35;101111.66;5056028;28;20210;-74
2022/06/18 03:15:13;;;;;;;1.80;1.47;;;;;;;15.85;91.88;101102.88;5050936;28;20742;-75
2022/06/18 03:17:39;;;;;;;2.77;1.50;;;;;;;15.89;92.89;101107.06;5056735;28;20289;-75
2022/06/18 03:20:14;;;;;;;1.93;1.37;;;;;;;15.80;91.32;101110.09;5043058;28;20200;-75
2022/06/18 03:22:40;;;;;;;1.50;1.40;;;;;;;15.75;92.09;101107.63;5057919;28;20194;-75
2022/06/18 03:25:07;;;;;;;2.63;1.57;;;;;;;15.72;92.58;101102.44;5041815;28;20201;-74
2022/06/18 03:27:34;;;;;;;1.63;1.53;;;;;;;15.76;93.37;101095.34;5041599;28;20202;-75
2022/06/18 03:30:07;;;;;;;1.50;1.40;;;;;;;15.75;93.36;101098.91;5054025;28;20224;-75
2022/06/18 03:32:33;;;;;;;3.10;1.60;;;;;;;15.74;94.75;101095.34;5056429;28;20207;-75
2022/06/18 03:35:00;;;;;;;1.70;1.30;;;;;;;15.75;94.88;101096.25;5042252;28;20244;-75
2022/06/18 03:37:26;;;;;;;1.80;1.30;;;;;;;15.75;94.83;101088.38;5043131;28;20261;-75
2022/06/18 03:39:53;;;;;;;4.27;1.77;;;;;;;15.84;94.85;101086.22;5055371;28;20276;-75
2022/06/18 03:42:21;;;;;;;1.73;1.37;;;;;;;15.90;95.41;101083.34;5057625;28;20578;-75
2022/06/18 03:44:48;;;;;;;2.70;1.87;;;;;;;15.93;95.18;101084.13;5057337;28;20221;-75
2022/06/18 03:47:15;;;;;;;2.87;1.67;;;;;;;15.99;95.87;101068.09;5057335;28;20240;-75
2022/06/18 03:49:42;;;;;;;2.70;1.73;;;;;;;16.06;94.60;101072.19;5057245;28;20206;-75
2022/06/18 03:52:10;;;;;;;2.13;1.70;;;;;;;16.14;93.84;101067.44;5060314;28;20231;-75
2022/06/18 03:54:36;;;;;;;1.93;1.40;;;;;;;16.19;92.58;101062.84;5060771;28;20265;-75
2022/06/18 03:57:06;;;;;;;3.00;1.70;;;;;;;16.24;90.94;101071.41;5061227;28;20206;-75
2022/06/18 03:59:34;;;;;;;2.37;1.60;;;;;;;16.33;91.61;101072.78;5061623;28;20297;-75
2022/06/18 04:02:01;;;;;;;2.10;1.77;;;;;;;16.33;90.27;101056.16;5056411;28;20605;-75
2022/06/18 04:04:34;;;;;;;1.33;1.13;;;;;;;16.31;89.93;101061.47;5060958;28;20663;-75
2022/06/18 04:07:01;;;;;;;3.80;1.47;;;;;;;16.28;87.84;101057.19;5045497;28;20200;-75
2022/06/18 04:09:46;;;;;;;2.70;1.23;;;;;;;16.31;89.25;101055.38;5056541;28;20590;-75
2022/06/18 04:12:19;;;;;;;1.30;1.20;;;;;;;16.36;89.09;101056.00;5041487;28;20733;-75
2022/06/18 04:15:09;;;;;;;1.87;1.20;;;;;;;16.44;88.41;101049.47;5046911;28;20591;-75
2022/06/18 04:17:43;;;;;;;2.13;1.37;;;;;;;16.58;87.00;101053.28;5057781;28;20191;-75
2022/06/18 04:20:19;;;;;;;2.30;1.10;;;;;;;16.75;85.96;101053.41;5042333;28;20201;-73
2022/06/18 04:22:45;;;;;;;1.20;1.10;;;;;;;16.90;83.09;101059.75;5063686;28;20311;-74
2022/06/18 04:25:13;;;;;;;1.57;1.30;;;;;;;17.06;82.34;101057.28;5057177;28;20204;-73
2022/06/18 04:27:40;;;;;;;2.00;1.53;;;;;;;17.19;81.00;101066.34;5058599;28;20586;-74
2022/06/18 04:30:08;;;;;;;1.07;0.90;;;;;;;17.33;80.14;101055.16;5059287;28;20219;-73
2022/06/18 04:32:53;;;;;;;2.13;1.40;;;;;;;17.50;80.60;101045.56;5043000;28;20751;-74
2022/06/18 04:35:22;;;;;;;1.20;1.10;;;;;;;17.63;78.25;101046.69;5039887;28;20210;-73
2022/06/18 04:37:57;;;;;;;1.23;1.13;;;;;;;17.79;78.20;101049.41;5041270;28;20631;-73
2022/06/18 04:40:44;;;;;;;1.00;1.00;;;;;;;18.00;76.38;101058.06;5057048;28;20211;-73
2022/06/18 04:43:17;;;;;;;2.57;1.10;;;;;;;18.16;74.40;101063.44;5062591;28;20209;-73
2022/06/18 04:45:50;;;;;;;1.17;1.00;;;;;;;18.26;73.40;101056.75;5062776;28;20200;-73
2022/06/18 04:48:20;;;;;;;1.10;1.00;;;;;;;18.39;73.75;101054.31;5043019;28;20206;-73
2022/06/18 04:50:48;;;;;;;1.20;1.00;;;;;;;18.52;71.02;101058.03;5048361;28;20211;-73
2022/06/18 04:53:15;;;;;;;6.10;1.17;;;;;;;18.67;71.06;101051.06;5058569;28;20232;-73
2022/06/18 04:55:45;;;;;;;1.80;1.00;;;;;;;18.83;68.45;101058.22;5047508;28;20550;-73
2022/06/18 04:58:11;;;;;;;1.30;1.20;;;;;;;18.97;69.67;101054.84;5059085;28;20201;-73
2022/06/18 05:00:44;;;;;;;4.03;1.00;;;;;;;19.10;67.96;101055.84;5038509;28;20249;-73
2022/06/18 05:03:21;;;;;;;2.20;1.37;;;;;;;19.23;67.30;101059.53;5036928;28;20208;-74
2022/06/18 05:06:00;;;;;;;1.47;1.10;;;;;;;19.35;65.77;101060.66;5055926;28;20948;-73
2022/06/18 05:08:39;;;;;;;1.23;1.10;;;;;;;19.47;65.41;101051.16;5042965;28;20207;-73
2022/06/18 05:11:22;;;;;;;1.10;0.90;;;;;;;19.63;64.48;101045.84;5059219;28;20806;-74
2022/06/18 05:14:04;;;;;;;1.27;1.10;;;;;;;19.75;63.58;101044.31;5042100;28;20502;-74
2022/06/18 05:16:32;;;;;;;1.70;0.93;;;;;;;19.88;63.07;101040.03;5045174;28;20234;-74
2022/06/18 05:19:00;;;;;;;1.00;1.00;;;;;;;19.98;60.89;101043.84;5057531;28;21541;-74
2022/06/18 05:21:28;;;;;;;2.13;0.97;;;;;;;20.09;60.29;101040.56;5056086;28;20583;-73
2022/06/18 05:23:57;;;;;;;4.03;0.90;;;;;;;20.23;61.23;101037.09;5054523;28;20675;-73
2022/06/18 05:26:23;;;;;;;1.50;0.90;;;;;;;20.30;59.58;101043.72;5039733;28;20301;-73
2022/06/18 05:28:50;;;;;;;2.77;1.10;;;;;;;20.36;58.82;101040.69;5058336;28;20198;-73
2022/06/18 05:31:18;;;;;;;1.03;1.00;;;;;;;20.48;58.95;101038.25;5041347;28;20211;-74
2022/06/18 05:33:44;;;;;;;1.87;1.10;;;;;;;20.55;58.95;101036.91;5040470;28;20328;-74
2022/06/18 05:36:19;;;;;;;1.20;1.10;;;;;;;20.68;58.00;101029.94;5057277;28;20195;-74
2022/06/18 05:38:47;;;;;;;1.33;1.10;;;;;;;20.77;57.98;101036.44;5040741;28;20678;-74
2022/06/18 05:41:14;;;;;;;1.30;1.20;;;;;;;20.86;57.81;101033.25;5041548;28;20222;-74
2022/06/18 05:43:41;;;;;;;0.77;0.77;;;;;;;20.96;57.21;101038.81;5042784;28;20199;-74
2022/06/18 05:46:11;;;;;;;1.90;1.20;;;;;;;21.07;56.61;101033.69;5038815;28;20234;-74
2022/06/18 05:48:37;;;;;;;1.10;1.00;;;;;;;21.20;55.25;101036.41;5060399;28;20321;-74
2022/06/18 05:51:04;;;;;;;0.80;0.80;;;;;;;21.31;55.83;101028.59;5056152;28;20226;-74
2022/06/18 05:53:31;;;;;;;0.80;0.80;;;;;;;21.42;54.82;101027.03;5044027;28;20248;-74
2022/06/18 05:56:23;;;;;;;0.93;0.80;;;;;;;21.51;54.49;101029.13;5038065;28;20548;-74
2022/06/18 05:59:01;;;;;;;2.40;1.20;;;;;;;21.60;53.23;101030.31;5060796;28;20717;-74
2022/06/18 06:01:30;;;;;;;1.10;1.00;;;;;;;21.72;53.30;101026.84;5042299;28;20233;-74
2022/06/18 06:04:00;;;;;;;2.37;0.90;;;;;;;21.79;53.18;101028.13;5044968;28;20700;-73
2022/06/18 06:06:27;;;;;;;1.10;1.00;;;;;;;21.91;53.22;101018.50;5043337;28;20230;-73
2022/06/18 06:08:55;;;;;;;0.93;0.90;;;;;;;22.07;51.76;101023.63;5046108;28;20206;-73
2022/06/18 06:11:30;;;;;;;1.27;1.00;;;;;;;22.18;52.12;101028.19;5058952;28;20914;-74
2022/06/18 06:14:09;;;;;;;2.50;1.10;;;;;;;22.33;50.92;101019.19;5054704;28;20199;-74
2022/06/18 06:16:36;;;;;;;1.00;0.90;;;;;;;22.41;50.08;101019.53;5062941;28;20749;-74
2022/06/18 06:19:03;;;;;;;4.23;1.10;;;;;;;22.55;50.14;101009.72;5058451;28;20191;-73
2022/06/18 06:21:29;;;;;;;0.70;0.70;;;;;;;22.69;50.85;101010.47;5061579;28;20222;-73
2022/06/18 06:23:56;;;;;;;0.90;0.80;;;;;;;22.82;49.05;101013.09;5061118;28;20727;-73
2022/06/18 06:26:27;;;;;;;0.90;0.90;;;;;;;22.97;49.14;101010.28;5059600;28;20186;-74
2022/06/18 06:28:53;;;;;;;1.83;0.83;;;;;;;23.11;49.50;101007.50;5059478;28;20467;-73
2022/06/18 06:31:20;;;;;;;2.50;0.90;;;;;;;23.24;47.30;101007.47;5060589;28;20230;-73
2022/06/18 06:33:46;;;;;;;5.10;0.87;;;;;;;23.34;47.00;101000.50;5063283;28;20213;-74
2022/06/18 06:36:13;;;;;;;2.47;0.90;;;;;;;23.44;46.31;100998.00;5061716;28;20663;-73
2022/06/18 06:38:40;;;;;;;4.73;1.00;;;;;;;23.54;45.67;101000.81;5060567;28;20203;-74
2022/06/18 06:41:12;;;;;;;1.73;0.90;;;;;;;23.68;45.91;100989.97;5057902;28;20217;-73
2022/06/18 06:43:40;;;;;;;0.93;0.93;;;;;;;23.84;46.00;100991.53;5058004;28;20206;-73
2022/06/18 06:46:07;;;;;;;2.53;0.80;;;;;;;23.96;44.92;100996.75;5060982;28;20213;-74
2022/06/18 06:48:33;;;;;;;0.90;0.80;;;;;;;24.13;45.45;100995.44;5062595;28;20662;-73
2022/06/18 06:51:00;;;;;;;1.05;0.95;;;;;;;24.26;44.62;100990.00;5061751;28;20705;-74
2022/06/18 06:53:26;;;;;;;1.63;1.02;;;;;;;24.45;43.42;100994.75;5058332;28;20195;-73
2022/06/18 06:58:36;;;;;;;0.90;0.80;;;;;;;24.72;43.75;100985.53;5059703;28;20217;-74
2022/06/18 07:01:05;;;;;;;0.80;0.80;;;;;;;24.88;42.80;100986.00;5060284;28;20222;-73
2022/06/18 07:03:34;;;;;;;2.05;0.95;;;;;;;25.00;42.48;100986.81;5059379;28;20681;-74
2022/06/18 07:06:02;;;;;;;0.80;0.80;;;;;;;25.04;40.92;100987.41;5055478;28;20199;-74
2022/06/18 07:08:28;;;;;;;2.55;1.10;;;;;;;25.17;41.78;100980.13;5057668;28;20199;-73
2022/06/18 07:10:55;;;;;;;0.90;0.90;;;;;;;25.33;39.79;100987.75;5055717;28;20467;-73
2022/06/18 07:13:22;;;;;;;0.70;0.60;;;;;;;25.41;40.19;100976.41;5058981;28;20201;-74
2022/06/18 07:15:50;;;;;;;0.90;0.77;;;;;;;25.61;40.22;100972.06;5057741;28;20281;-73
2022/06/18 07:18:21;;;;;;;1.80;0.82;;;;;;;25.74;40.47;100966.53;5057887;28;20570;-73
2022/06/18 07:20:47;;;;;;;0.98;0.90;;;;;;;25.89;40.18;100974.09;5055791;28;20210;-74
2022/06/18 07:23:14;;;;;;;1.00;1.00;;;;;;;25.92;39.81;100961.44;5056928;28;20891;-74
2022/06/18 07:25:41;;;;;;;1.50;0.80;;;;;;;25.99;39.00;100968.00;5060108;28;20198;-73
2022/06/18 07:28:08;;;;;;;1.60;1.00;;;;;;;26.09;40.43;100952.88;5062876;28;20202;-74
2022/06/18 07:30:35;;;;;;;0.90;0.90;;;;;;;26.17;39.41;100953.03;5062977;28;20214;-74
2022/06/18 07:33:01;;;;;;;2.45;0.90;;;;;;;26.17;38.27;100950.34;5056627;28;20510;-73
2022/06/18 07:35:31;;;;;;;0.80;0.80;;;;;;;26.35;38.65;100949.72;5056730;28;20205;-74
2022/06/18 07:37:58;;;;;;;0.80;0.80;;;;;;;26.51;39.07;100944.75;5061808;28;20592;-74
2022/06/18 07:40:26;;;;;;;0.95;0.85;;;;;;;26.67;39.58;100938.06;5061810;28;20202;-73
2022/06/18 07:42:55;;;;;;;1.08;0.90;;;;;;;26.82;38.39;100944.69;5060419;28;20857;-73
2022/06/18 07:45:23;;;;;;;2.15;1.13;;;;;;;26.89;36.72;100937.78;5058926;28;20202;-74
2022/06/18 07:47:51;;;;;;;0.80;0.80;;;;;;;26.93;36.77;100928.53;5059653;28;20386;-74
2022/06/18 07:50:19;;;;;;;4.68;1.08;;;;;;;27.15;37.61;100921.22;5062510;28;20207;-74
2022/06/18 07:52:47;;;;;;;1.35;0.85;;;;;;;27.28;36.59;100927.16;5061874;28;20202;-74
2022/06/18 07:55:16;;;;;;;2.15;0.88;;;;;;;27.41;36.60;100929.53;5060063;28;21785;-73
2022/06/18 07:57:43;;;;;;;1.08;0.80;;;;;;;27.55;36.43;100923.75;5062356;28;20203;-74
2022/06/18 08:00:11;;;;;;;1.02;0.80;;;;;;;27.60;35.36;100919.78;5060461;28;20268;-74
2022/06/18 08:02:39;;;;;;;1.20;0.90;;;;;;;27.58;35.87;100917.25;5064595;28;20199;-74
2022/06/18 08:05:07;;;;;;;0.95;0.90;;;;;;;27.56;37.16;100912.06;5063372;28;20202;-74
2022/06/18 08:07:33;;;;;;;1.92;0.90;;;;;;;27.61;35.20;100914.28;5062549;28;20211;-73
2022/06/18 08:10:01;;;;;;;1.00;0.93;;;;;;;27.73;36.26;100906.94;5064342;28;20213;-73
2022/06/18 08:12:28;;;;;;;1.27;0.95;;;;;;;27.80;35.92;100904.53;5066110;28;20232;-74
2022/06/18 08:14:54;;;;;;;1.95;1.10;;;;;;;27.90;35.03;100905.34;5061498;28;20201;-74
2022/06/18 08:17:21;;;;;;;0.80;0.80;;;;;;;27.94;36.04;100904.91;5064056;28;20413;-74
2022/06/18 08:19:47;;;;;;;1.02;0.88;;;;;;;27.93;34.85;100899.69;5063830;28;20202;-74
2022/06/18 08:22:13;;;;;;;1.23;0.80;;;;;;;28.11;35.29;100889.06;5065372;28;20229;-74
2022/06/18 08:24:40;;;;;;;2.08;0.80;;;;;;;28.16;35.47;100897.47;5063326;28;20210;-74
2022/06/18 08:27:09;;;;;;;1.20;1.00;;;;;;;28.22;35.29;100899.59;5066305;28;20201;-74
2022/06/18 08:29:36;;;;;;;0.95;0.85;;;;;;;28.28;35.95;100888.28;5054718;28;20207;-74
2022/06/18 08:32:03;;;;;;;0.85;0.82;;;;;;;28.29;35.42;100892.63;5061631;28;20223;-74
2022/06/18 08:34:30;;;;;;;2.10;1.00;;;;;;;28.27;35.07;100888.44;5057393;28;20437;-74
2022/06/18 08:36:57;;;;;;;1.83;1.00;;;;;;;28.37;35.62;100889.19;5058844;28;20205;-74
2022/06/18 08:39:23;;;;;;;1.15;1.05;;;;;;;28.50;35.62;100887.00;5060814;28;20206;-74
2022/06/18 08:42:04;;;;;;;1.08;0.98;;;;;;;28.72;35.71;100874.19;5061266;28;20701;-74
2022/06/18 08:45:09;;;;;;;1.08;0.95;;;;;;;28.77;35.37;100877.25;5062333;28;20206;-74
2022/06/18 08:47:53;;;;;;;1.10;0.80;;;;;;;28.75;34.81;100873.88;5061115;28;20285;-74
2022/06/18 08:50:36;;;;;;;0.90;0.90;;;;;;;28.85;35.91;100869.28;5057243;28;20211;-74
2022/06/18 08:53:25;;;;;;;1.65;1.00;;;;;;;28.89;34.97;100867.16;5060517;28;20221;-74
2022/06/18 08:55:59;;;;;;;0.93;0.90;;;;;;;29.10;34.54;100868.69;5057962;28;20202;-74
2022/06/18 08:58:35;;;;;;;2.25;0.95;;;;;;;29.08;34.10;100866.97;5057419;28;20201;-74
2022/06/18 09:01:06;;;;;;;0.75;0.75;;;;;;;29.26;36.19;100858.91;5056291;28;20223;-74
2022/06/18 09:03:51;;;;;;;3.03;1.17;;;;;;;29.39;34.35;100858.53;5057440;28;20197;-74
2022/06/18 09:06:28;;;;;;;1.38;1.10;;;;;;;29.50;34.66;100853.88;5058887;28;20210;-73
2022/06/18 09:12:59;;;;;;;2.10;1.00;;;;;;;29.61;32.99;100856.31;5060815;28;20222;-75
2022/06/18 09:18:54;;;;;;;1.10;1.10;;;;;;;29.79;34.52;100853.56;4959706;23;20309;-75
2022/06/18 09:21:26;;;;;;;0.90;0.90;;;;;;;29.87;35.18;100848.25;5045283;28;20226;-75
2022/06/18 09:23:57;;;;;;;0.90;0.90;;;;;;;30.00;32.93;100856.69;5056444;28;20207;-75
2022/06/18 09:26:28;;;;;;;0.90;0.90;;;;;;;30.14;32.53;100846.34;5058857;28;20710;-75
2022/06/18 09:29:02;;;;;;;1.90;1.05;;;;;;;30.10;32.34;100843.13;5059725;28;20667;-75
2022/06/18 09:31:36;;;;;;;1.23;1.13;;;;;;;30.12;33.14;100840.28;5068949;28;20210;-75
2022/06/18 09:34:10;;;;;;;1.30;1.20;;;;;;;30.38;33.83;100835.69;5077109;28;20212;-75
2022/06/18 09:36:42;;;;;;;1.17;1.05;;;;;;;30.56;34.11;100834.72;5080962;28;20686;-74
2022/06/18 09:39:14;;;;;;;1.20;1.10;;;;;;;30.53;33.15;100829.66;5077505;28;20295;-75
2022/06/18 09:41:46;;;;;;;1.17;1.08;;;;;;;30.63;33.58;100826.81;5082246;28;20194;-75
2022/06/18 09:44:20;;;;;;;1.08;0.98;;;;;;;30.65;34.03;100833.72;5081467;28;20221;-75
2022/06/18 09:46:54;;;;;;;2.00;1.30;;;;;;;30.77;33.45;100828.84;5079326;28;20781;-75
2022/06/18 09:49:22;;;;;;;2.10;1.00;;;;;;;30.75;32.87;100825.47;5077574;28;20213;-75
2022/06/18 09:51:52;;;;;;;0.75;0.75;;;;;;;30.83;33.54;100819.25;5079234;28;20225;-75
2022/06/18 09:54:20;;;;;;;1.80;1.30;;;;;;;30.89;33.34;100816.75;5076356;28;20298;-75
2022/06/18 09:56:51;;;;;;;1.10;1.00;;;;;;;30.93;32.01;100809.19;5083574;28;20292;-74
2022/06/18 09:59:22;;;;;;;1.55;1.00;;;;;;;30.97;33.59;100802.44;5081788;28;20620;-74
2022/06/18 10:01:53;;;;;;;2.15;1.10;;;;;;;31.02;31.69;100807.34;5081548;28;20191;-74
2022/06/18 10:07:15;;;;;;;1.15;1.05;;;;;;;31.09;32.46;100808.34;5082128;28;20202;-74
2022/06/18 10:09:46;;;;;;;1.75;1.15;;;;;;;31.10;31.31;100800.09;5082133;28;20709;-74
2022/06/18 10:12:19;;;;;;;1.50;1.20;;;;;;;31.17;32.98;100799.41;5080313;28;20723;-74
2022/06/18 10:14:47;;;;;;;1.10;1.00;;;;;;;31.23;32.06;100796.03;5081120;28;20721;-74
2022/06/18 10:17:22;;;;;;;1.00;1.00;;;;;;;31.34;31.80;100792.97;5078445;28;20368;-74
2022/06/18 10:20:02;;;;;;;3.17;1.38;;;;;;;31.50;30.96;100795.66;5081463;28;20814;-74
2022/06/18 10:22:38;;;;;;;1.48;1.20;;;;;;;31.61;31.09;100783.69;5081544;28;20182;-74
2022/06/18 10:25:13;;;;;;;2.10;1.10;;;;;;;31.76;33.18;100783.78;5058211;28;20233;-74
2022/06/18 10:27:47;;;;;;;2.55;1.20;;;;;;;31.76;31.18;100782.94;5075871;28;20190;-74
2022/06/18 10:30:19;;;;;;;1.23;1.10;;;;;;;31.79;30.81;100785.28;5080095;28;20620;-74
2022/06/18 10:32:55;;;;;;;1.20;1.05;;;;;;;31.88;31.29;100786.94;5082510;28;20222;-74
2022/06/18 10:35:48;;;;;;;1.50;1.10;;;;;;;31.89;30.49;100777.81;5078944;28;20212;-74
2022/06/18 10:38:28;;;;;;;1.60;1.30;;;;;;;31.92;31.37;100782.03;5082007;28;20579;-74
2022/06/18 10:41:06;;;;;;;1.45;1.23;;;;;;;32.05;30.32;100780.47;5080985;28;20193;-74
2022/06/18 10:43:48;;;;;;;1.20;1.10;;;;;;;32.02;29.96;100766.47;5078128;28;20202;-74
2022/06/18 10:46:18;;;;;;;1.35;1.20;;;;;;;32.02;30.27;100771.88;5079301;28;20732;-75
2022/06/18 10:48:47;;;;;;;1.77;1.08;;;;;;;32.01;30.45;100776.38;5080658;28;20723;-74
2022/06/18 10:51:20;;;;;;;1.35;1.25;;;;;;;32.16;29.73;100764.91;5079535;28;20206;-74
2022/06/18 10:53:50;;;;;;;2.05;1.35;;;;;;;32.23;31.00;100758.59;5079060;28;20598;-74
2022/06/18 10:56:18;;;;;;;1.77;1.15;;;;;;;32.36;29.46;100762.56;5076995;28;20194;-74
2022/06/18 10:58:49;;;;;;;2.90;1.35;;;;;;;32.39;29.70;100764.91;5077843;28;20210;-74
2022/06/18 11:01:26;;;;;;;2.08;1.50;;;;;;;32.31;30.25;100770.34;5077784;28;20206;-74
2022/06/18 11:03:58;;;;;;;1.23;1.10;;;;;;;32.29;29.58;100767.84;5074576;28;20678;-74
2022/06/18 11:06:27;;;;;;;2.67;1.50;;;;;;;32.26;29.93;100754.72;5077469;28;20644;-74
2022/06/18 11:08:56;;;;;;;1.25;1.15;;;;;;;32.32;30.46;100751.28;5081689;28;20292;-74
2022/06/18 11:11:25;;;;;;;1.25;1.10;;;;;;;32.36;30.23;100752.59;5078076;28;20233;-74
2022/06/18 11:13:52;;;;;;;1.98;1.23;;;;;;;32.46;30.70;100755.91;5076864;28;20194;-74
2022/06/18 11:16:20;;;;;;;6.15;1.30;;;;;;;32.52;29.73;100758.91;5075479;28;20280;-74
2022/06/18 11:18:51;;;;;;;1.30;1.20;;;;;;;32.61;29.77;100761.41;5074006;28;20701;-74
2022/06/18 11:21:33;;;;;;;4.78;1.27;;;;;;;32.55;30.30;100762.06;5079166;28;20198;-74
2022/06/18 11:24:02;;;;;;;2.20;1.20;;;;;;;32.63;29.97;100745.84;5076356;28;20253;-74
2022/06/18 11:26:30;;;;;;;1.50;1.40;;;;;;;32.86;28.91;100749.53;5082767;28;20190;-74
2022/06/18 11:29:01;;;;;;;2.35;1.30;;;;;;;32.76;28.66;100739.00;5078967;28;20732;-75
2022/06/18 11:31:31;;;;;;;3.92;1.30;;;;;;;32.80;30.94;100743.84;5080776;28;20198;-74
2022/06/18 11:34:02;;;;;;;1.67;1.17;;;;;;;32.88;31.90;100742.09;5076811;28;20205;-75
2022/06/18 11:36:37;;;;;;;2.13;1.27;;;;;;;32.86;30.51;100734.19;5076528;28;20198;-74
2022/06/18 11:39:05;;;;;;;1.25;1.15;;;;;;;32.82;29.46;100738.25;5076935;28;20263;-74
2022/06/18 11:41:38;;;;;;;1.42;1.17;;;;;;;32.89;30.91;100731.09;5074178;28;20628;-74
2022/06/18 11:44:10;;;;;;;2.40;1.42;;;;;;;32.80;28.91;100733.03;5078359;28;20206;-74
2022/06/18 11:46:40;;;;;;;1.50;1.40;;;;;;;32.77;30.54;100722.63;5076012;28;20658;-74
2022/06/18 11:49:12;;;;;;;2.00;1.40;;;;;;;32.82;30.53;100716.66;5070394;28;20799;-74
2022/06/18 11:51:43;;;;;;;1.77;1.23;;;;;;;33.01;28.87;100720.69;5075871;28;20205;-74
2022/06/18 11:54:19;;;;;;;2.30;1.45;;;;;;;32.95;27.87;100708.78;5055618;28;20585;-74
2022/06/18 11:56:53;;;;;;;1.83;1.27;;;;;;;33.01;30.10;100713.41;5077640;28;20202;-74
2022/06/18 11:59:23;;;;;;;2.17;1.50;;;;;;;33.21;29.28;100704.81;5073439;28;20230;-74